Time;durP1;ratioP1;P1;durP2;ratioP2;P2;SDS_P1;SDS_P2;PMS_P1;PMS_P2;Temp;Humidity;BMP_temperature;BMP_pressure;BME280_temperature;BME280_humidity;BME280_pressure;Samples;Min_cycle;Max_cycle;Signal;HPM_P1;HPM_P2
2022/10/18 00:01:05;;;;;;;5.80;3.93;;;-27.80;99.90;;;;;;5031478;28;20518;-67
2022/10/18 00:03:32;;;;;;;5.97;4.13;;;-30.40;99.90;;;;;;5032148;28;20185;-68
2022/10/18 00:05:58;;;;;;;5.80;4.30;;;-26.80;99.90;;;;;;5034665;28;20178;-68
2022/10/18 00:08:24;;;;;;;9.90;4.50;;;-29.70;99.90;;;;;;5036535;28;20254;-68
2022/10/18 00:10:50;;;;;;;4.10;3.67;;;-30.60;99.90;;;;;;5033497;28;20188;-71
2022/10/18 00:13:16;;;;;;;15.50;4.50;;;-28.10;99.90;;;;;;5031553;28;20191;-70
2022/10/18 00:16:13;;;;;;;9.90;3.77;;;-26.10;99.90;;;;;;5038197;28;20553;-76
2022/10/18 00:18:39;;;;;;;6.40;5.00;;;-24.30;99.90;;;;;;5037503;28;20180;-73
2022/10/18 00:21:13;;;;;;;27.23;5.13;;;-26.70;99.90;;;;;;5038255;28;20177;-74
2022/10/18 00:23:39;;;;;;;4.40;4.10;;;-27.80;99.90;;;;;;5037939;28;20188;-72
2022/10/18 00:26:12;;;;;;;6.40;4.17;;;-27.80;99.90;;;;;;5037900;28;20176;-71
2022/10/18 00:28:38;;;;;;;12.40;4.80;;;-26.20;99.90;;;;;;5031802;28;20184;-77
2022/10/18 00:31:19;;;;;;;6.93;4.50;;;-26.80;99.90;;;;;;5027733;28;20176;-69
2022/10/18 00:33:50;;;;;;;7.30;4.20;;;-23.30;99.90;;;;;;5027128;28;20192;-74
2022/10/18 00:36:16;;;;;;;8.40;5.40;;;-23.80;99.90;;;;;;5027447;28;20209;-68
2022/10/18 00:38:43;;;;;;;37.80;5.77;;;-24.40;99.90;;;;;;5026352;28;20177;-72
2022/10/18 00:41:12;;;;;;;11.50;4.90;;;-26.20;99.90;;;;;;5020096;28;20177;-77
2022/10/18 00:43:53;;;;;;;9.20;4.70;;;-25.00;99.90;;;;;;5019063;28;20185;-77
2022/10/18 00:46:18;;;;;;;13.37;4.37;;;-23.90;99.90;;;;;;5034310;28;20208;-74
2022/10/18 00:48:44;;;;;;;7.30;4.60;;;-25.40;99.90;;;;;;5018592;28;20488;-70
2022/10/18 00:51:10;;;;;;;8.73;3.40;;;-24.30;99.90;;;;;;5030509;28;20184;-75
2022/10/18 00:53:36;;;;;;;7.13;4.00;;;-23.40;99.90;;;;;;5030542;28;20184;-74
2022/10/18 00:56:02;;;;;;;9.60;4.30;;;-25.50;99.90;;;;;;5028284;28;20258;-72
2022/10/18 00:58:28;;;;;;;5.00;3.80;;;-24.20;99.90;;;;;;5037150;28;20177;-70
2022/10/18 01:00:54;;;;;;;23.30;5.10;;;-24.10;99.90;;;;;;5037033;28;20509;-71
2022/10/18 01:03:20;;;;;;;10.83;5.53;;;-23.80;99.90;;;;;;5032926;28;20185;-68
2022/10/18 01:05:47;;;;;;;5.50;4.60;;;-24.40;99.90;;;;;;5028802;28;20273;-69
2022/10/18 01:08:46;;;;;;;8.73;4.03;;;-24.80;99.90;;;;;;5026070;28;20180;-66
2022/10/18 01:11:31;;;;;;;6.20;3.53;;;-25.50;99.90;;;;;;5052678;28;20188;-76
2022/10/18 01:14:17;;;;;;;14.23;4.13;;;-25.50;99.90;;;;;;5036977;28;20184;-73
2022/10/18 01:16:59;;;;;;;4.10;3.60;;;-28.10;99.90;;;;;;5030459;28;20627;-71
2022/10/18 01:19:37;;;;;;;5.83;3.50;;;-29.70;99.90;;;;;;5036990;28;20180;-75
2022/10/18 01:22:22;;;;;;;4.20;3.50;;;-30.50;99.90;;;;;;5020265;28;20280;-71
2022/10/18 01:25:09;;;;;;;11.10;4.83;;;-29.40;99.90;;;;;;5025825;28;20210;-72
2022/10/18 01:27:53;;;;;;;11.33;4.57;;;-27.10;99.90;;;;;;5051848;28;20192;-73
2022/10/18 01:30:45;;;;;;;4.57;3.80;;;-31.30;99.90;;;;;;5030726;28;20195;-76
2022/10/18 01:33:31;;;;;;;8.50;3.93;;;-28.30;99.90;;;;;;5037866;28;20238;-73
2022/10/18 01:36:16;;;;;;;11.13;4.27;;;-25.40;99.90;;;;;;5035422;28;21337;-76
2022/10/18 01:38:43;;;;;;;8.67;4.50;;;-27.00;99.90;;;;;;5023869;28;20180;-70
2022/10/18 01:41:12;;;;;;;7.37;4.30;;;-25.50;99.90;;;;;;5027042;28;20178;-75
2022/10/18 01:43:39;;;;;;;9.37;5.17;;;-26.80;99.90;;;;;;5034613;28;20183;-76
2022/10/18 01:46:07;;;;;;;4.97;3.17;;;-28.50;99.90;;;;;;5031665;28;20212;-77
2022/10/18 01:48:36;;;;;;;9.53;3.67;;;-27.80;99.90;;;;;;5029814;28;20188;-76
2022/10/18 01:51:03;;;;;;;4.17;3.77;;;-25.80;99.90;;;;;;5032177;28;20530;-78
2022/10/18 01:53:31;;;;;;;4.50;4.10;;;-29.30;99.90;;;;;;5032398;28;20635;-77
2022/10/18 01:56:06;;;;;;;7.30;4.23;;;-28.00;99.90;;;;;;5035723;28;20607;-78
2022/10/18 01:58:38;;;;;;;51.90;6.03;;;-25.40;99.90;;;;;;5028812;28;20176;-75
2022/10/18 02:01:36;;;;;;;13.43;4.40;;;-26.80;99.90;;;;;;5029727;28;20701;-75
2022/10/18 02:04:12;;;;;;;8.27;4.70;;;-26.40;99.90;;;;;;5023645;28;20231;-79
2022/10/18 02:06:44;;;;;;;12.67;3.93;;;-27.00;99.90;;;;;;5031317;28;20176;-74
2022/10/18 02:09:20;;;;;;;9.23;4.10;;;-24.40;99.90;;;;;;5035954;28;20193;-77
2022/10/18 02:11:50;;;;;;;4.37;4.07;;;-26.60;99.90;;;;;;5035925;28;20177;-77
2022/10/18 02:14:18;;;;;;;4.37;3.93;;;-25.10;99.90;;;;;;5035933;28;20181;-77
2022/10/18 02:16:51;;;;;;;10.67;3.63;;;-24.40;99.90;;;;;;5035917;28;20302;-75
2022/10/18 02:19:24;;;;;;;24.20;4.47;;;-23.90;99.90;;;;;;5025611;28;20534;-76
2022/10/18 02:21:52;;;;;;;7.10;4.23;;;-24.60;99.90;;;;;;5023188;28;20181;-76
2022/10/18 02:24:20;;;;;;;4.43;4.03;;;-23.70;99.90;;;;;;5026094;28;20177;-76
2022/10/18 02:26:46;;;;;;;7.73;4.13;;;-25.50;99.90;;;;;;5030103;28;20224;-73
2022/10/18 02:29:12;;;;;;;5.87;4.00;;;-26.30;99.90;;;;;;5031109;28;20271;-79
2022/10/18 02:31:43;;;;;;;6.30;4.00;;;-23.30;99.90;;;;;;5035782;28;20196;-78
2022/10/18 02:34:38;;;;;;;6.27;3.63;;;-22.60;99.90;;;;;;5026748;28;20223;-76
2022/10/18 02:37:04;;;;;;;8.20;4.63;;;-23.60;99.90;;;;;;5029199;28;20195;-77
2022/10/18 02:39:34;;;;;;;4.43;4.03;;;-24.00;99.90;;;;;;5029137;28;20181;-77
2022/10/18 02:42:00;;;;;;;12.87;2.90;;;-22.60;99.90;;;;;;5045167;28;20184;-78
2022/10/18 02:44:26;;;;;;;24.17;4.73;;;-21.10;99.90;;;;;;5031772;28;20192;-76
2022/10/18 02:46:52;;;;;;;10.77;3.93;;;-21.30;99.90;;;;;;5035765;28;20191;-78
2022/10/18 02:49:18;;;;;;;5.17;3.70;;;-23.50;99.90;;;;;;5035217;28;20188;-74
2022/10/18 02:51:43;;;;;;;6.70;4.07;;;-25.10;99.90;;;;;;5051020;28;20192;-77
2022/10/18 02:54:09;;;;;;;23.53;5.73;;;-27.00;99.90;;;;;;5022686;28;20185;-77
2022/10/18 02:56:35;;;;;;;5.43;4.43;;;-26.90;99.90;;;;;;5027787;28;20202;-69
2022/10/18 02:59:02;;;;;;;34.87;6.83;;;-28.10;99.90;;;;;;5028035;28;20534;-68
2022/10/18 03:01:28;;;;;;;5.07;3.27;;;-30.30;99.90;;;;;;5050930;28;20203;-68
2022/10/18 03:03:54;;;;;;;7.17;3.70;;;-28.70;99.90;;;;;;5034901;28;20238;-68
2022/10/18 03:06:19;;;;;;;11.37;4.10;;;-29.50;99.90;;;;;;5023464;28;20181;-69
2022/10/18 03:08:45;;;;;;;9.20;3.80;;;-28.80;99.90;;;;;;5035071;28;20203;-68
2022/10/18 03:11:11;;;;;;;16.43;4.40;;;-29.50;99.90;;;;;;5025481;28;20177;-69
2022/10/18 03:13:36;;;;;;;7.03;4.67;;;-27.10;99.90;;;;;;5029382;28;20234;-72
2022/10/18 03:16:02;;;;;;;13.20;4.17;;;-27.40;99.90;;;;;;5035066;28;20208;-70
2022/10/18 03:18:28;;;;;;;3.73;3.40;;;-30.40;99.90;;;;;;5035391;28;20184;-68
2022/10/18 03:20:54;;;;;;;4.63;3.27;;;-28.00;99.90;;;;;;5028462;28;20181;-68
2022/10/18 03:23:20;;;;;;;7.10;3.50;;;-36.40;99.90;;;;;;5029122;28;20173;-71
2022/10/18 03:25:45;;;;;;;19.30;3.87;;;-30.10;99.90;;;;;;5024889;28;20235;-72
2022/10/18 03:28:11;;;;;;;8.10;4.33;;;-28.40;99.90;;;;;;5028914;28;20189;-70
2022/10/18 03:30:39;;;;;;;37.73;6.47;;;-30.00;99.90;;;;;;5035873;28;20193;-69
2022/10/18 03:33:05;;;;;;;15.23;4.47;;;-30.20;99.90;;;;;;5036378;28;20199;-74
2022/10/18 03:35:31;;;;;;;10.73;4.03;;;-30.20;99.90;;;;;;5037004;28;20501;-70
2022/10/18 03:37:57;;;;;;;12.30;4.90;;;-29.70;99.90;;;;;;5038246;28;20176;-72
2022/10/18 03:40:23;;;;;;;7.23;4.10;;;-34.30;99.90;;;;;;5050317;28;20191;-69
2022/10/18 03:42:48;;;;;;;35.83;7.73;;;-33.80;99.90;;;;;;5030845;28;20184;-67
2022/10/18 03:45:14;;;;;;;6.50;4.40;;;-31.80;99.90;;;;;;5038970;28;20533;-76
2022/10/18 03:47:40;;;;;;;8.60;3.93;;;-28.30;99.90;;;;;;5035185;28;20185;-75
2022/10/18 03:50:05;;;;;;;6.70;4.37;;;-28.60;99.90;;;;;;5033745;28;20238;-75
2022/10/18 03:52:31;;;;;;;10.07;4.57;;;-28.50;99.90;;;;;;5034739;28;20532;-77
2022/10/18 03:54:57;;;;;;;6.93;4.87;;;-28.20;99.90;;;;;;5020813;28;20209;-76
2022/10/18 03:57:23;;;;;;;13.30;4.57;;;-36.30;99.90;;;;;;5020674;28;20535;-77
2022/10/18 03:59:48;;;;;;;5.63;4.83;;;-36.00;99.90;;;;;;5036635;28;20200;-75
2022/10/18 04:02:14;;;;;;;5.80;5.20;;;-35.30;99.90;;;;;;5037781;28;20196;-69
2022/10/18 04:04:40;;;;;;;6.03;4.40;;;-36.00;99.90;;;;;;5038471;28;20572;-71
2022/10/18 04:07:05;;;;;;;6.93;5.03;;;-36.90;99.90;;;;;;5037876;28;20183;-67
2022/10/18 04:09:31;;;;;;;31.63;6.17;;;-35.70;99.90;;;;;;5029402;28;20185;-74
2022/10/18 04:11:57;;;;;;;9.77;5.30;;;-31.20;99.90;;;;;;5025041;28;20230;-80
2022/10/18 04:14:22;;;;;;;6.67;4.50;;;-28.90;99.90;;;;;;5027567;28;20264;-68
2022/10/18 04:16:48;;;;;;;12.67;5.20;;;-30.20;99.90;;;;;;5031636;28;20240;-75
2022/10/18 04:19:14;;;;;;;6.03;5.17;;;-29.60;99.90;;;;;;5033623;28;20180;-75
2022/10/18 04:21:40;;;;;;;10.80;6.53;;;-33.60;99.90;;;;;;5037863;28;20215;-76
2022/10/18 04:24:05;;;;;;;6.03;5.40;;;-30.00;99.90;;;;;;5028348;28;20185;-76
2022/10/18 04:26:31;;;;;;;6.00;5.37;;;-35.20;99.90;;;;;;5033568;28;20188;-77
2022/10/18 04:28:57;;;;;;;20.73;6.70;;;-36.10;99.90;;;;;;5034204;28;20191;-78
2022/10/18 04:31:23;;;;;;;6.60;5.13;;;-32.40;99.90;;;;;;5027999;28;20181;-68
2022/10/18 04:33:48;;;;;;;7.17;6.33;;;-33.10;99.90;;;;;;5032841;28;20263;-67
2022/10/18 04:36:14;;;;;;;5.87;5.23;;;-34.50;99.90;;;;;;5037526;28;20196;-69
2022/10/18 04:38:40;;;;;;;6.87;6.23;;;-36.60;99.90;;;;;;5032894;28;20615;-78
2022/10/18 04:41:06;;;;;;;5.23;4.77;;;-34.90;99.90;;;;;;5036625;28;20180;-70
2022/10/18 04:43:31;;;;;;;11.83;5.73;;;-34.40;99.90;;;;;;5022628;28;20468;-75
2022/10/18 04:45:57;;;;;;;6.60;4.83;;;-31.70;99.90;;;;;;5028390;28;20189;-77
2022/10/18 04:48:23;;;;;;;4.87;4.43;;;-33.50;99.90;;;;;;5033523;28;20272;-67
2022/10/18 04:50:50;;;;;;;13.73;5.00;;;-30.10;99.90;;;;;;5037300;28;20230;-67
2022/10/18 04:53:16;;;;;;;6.60;5.00;;;-30.90;99.90;;;;;;5034190;28;20188;-72
2022/10/18 04:55:47;;;;;;;5.50;4.50;;;-30.30;99.90;;;;;;5033122;28;20212;-70
2022/10/18 04:58:13;;;;;;;13.57;6.10;;;-33.60;99.90;;;;;;5029336;28;21057;-76
2022/10/18 05:00:40;;;;;;;8.67;6.17;;;-29.90;99.90;;;;;;5023608;28;20209;-76
2022/10/18 05:03:06;;;;;;;10.70;6.57;;;-31.10;99.90;;;;;;5019497;28;20177;-73
2022/10/18 05:05:31;;;;;;;11.10;6.57;;;-32.30;99.90;;;;;;5049253;28;20272;-70
2022/10/18 05:07:57;;;;;;;9.33;5.90;;;-31.90;99.90;;;;;;5031233;28;20651;-76
2022/10/18 05:10:23;;;;;;;10.97;6.87;;;-31.90;99.90;;;;;;5026904;28;20176;-75
2022/10/18 05:12:48;;;;;;;8.20;6.97;;;-31.90;99.90;;;;;;5036861;28;20184;-72
2022/10/18 05:15:14;;;;;;;10.57;8.80;;;-33.30;99.90;;;;;;5027771;28;20266;-75
2022/10/18 05:17:40;;;;;;;10.50;7.33;;;-36.30;99.90;;;;;;5025348;28;20216;-77
2022/10/18 05:20:06;;;;;;;10.60;7.90;;;-35.90;99.90;;;;;;5023843;28;20203;-75
2022/10/18 05:22:32;;;;;;;8.90;8.00;;;-36.40;99.90;;;;;;5032537;28;20230;-76
2022/10/18 05:24:57;;;;;;;9.90;7.30;;;-38.50;99.90;;;;;;5036960;28;20592;-77
2022/10/18 05:27:23;;;;;;;49.77;10.97;;;-35.20;99.90;;;;;;5031477;28;20189;-75
2022/10/18 05:29:49;;;;;;;10.63;9.27;;;-35.70;99.90;;;;;;5036812;28;20238;-75
2022/10/18 05:32:15;;;;;;;14.50;7.47;;;-37.70;99.90;;;;;;5030296;28;20203;-70
2022/10/18 05:34:40;;;;;;;13.27;8.30;;;-37.80;99.90;;;;;;5029070;28;20188;-71
2022/10/18 05:37:06;;;;;;;11.97;8.37;;;-37.60;99.90;;;;;;5033084;28;20188;-78
2022/10/18 05:39:32;;;;;;;13.73;9.20;;;-34.80;99.90;;;;;;5032997;28;20386;-76
2022/10/18 05:41:58;;;;;;;17.83;10.60;;;-33.80;99.90;;;;;;5036406;28;20580;-74
2022/10/18 05:44:24;;;;;;;11.77;9.27;;;-37.20;99.90;;;;;;5036343;28;20180;-74
2022/10/18 05:46:50;;;;;;;12.03;9.07;;;-37.00;99.90;;;;;;5036225;28;20274;-73
2022/10/18 05:49:16;;;;;;;28.40;9.07;;;-34.90;99.90;;;;;;5036202;28;20204;-76
2022/10/18 05:51:42;;;;;;;17.93;9.30;;;-39.30;99.90;;;;;;5036070;28;20180;-75
2022/10/18 05:54:10;;;;;;;16.07;10.27;;;-37.60;99.90;;;;;;5034637;28;20181;-75
2022/10/18 05:56:36;;;;;;;18.13;11.47;;;-36.70;99.90;;;;;;5025029;28;20237;-80
2022/10/18 05:59:03;;;;;;;15.97;11.00;;;-32.70;99.90;;;;;;5024338;28;20282;-70
2022/10/18 06:01:29;;;;;;;16.10;11.40;;;-32.70;99.90;;;;;;5028313;28;20232;-73
2022/10/18 06:03:55;;;;;;;11.70;10.50;;;-32.10;99.90;;;;;;5027478;28;20188;-70
2022/10/18 06:06:21;;;;;;;20.27;11.00;;;-30.10;99.90;;;;;;5025969;28;20192;-76
2022/10/18 06:08:48;;;;;;;17.47;14.03;;;-30.60;99.90;;;;;;5035962;28;20255;-70
2022/10/18 06:11:17;;;;;;;25.40;15.20;;;-28.50;99.90;;;;;;5028939;28;20222;-72
2022/10/18 06:13:44;;;;;;;21.13;12.97;;;-28.70;99.90;;;;;;5031049;28;20469;-70
2022/10/18 06:16:11;;;;;;;16.97;13.00;;;-29.10;99.90;;;;;;5028834;28;20299;-73
2022/10/18 06:18:37;;;;;;;13.53;12.20;;;-30.90;99.90;;;;;;5030365;28;20603;-71
2022/10/18 06:21:03;;;;;;;15.17;12.90;;;-29.40;99.90;;;;;;5026303;28;20182;-72
2022/10/18 06:23:29;;;;;;;16.00;12.60;;;-29.80;99.90;;;;;;5035456;28;20177;-75
2022/10/18 06:26:03;;;;;;;18.20;12.97;;;-34.50;99.90;;;;;;5034304;28;20269;-71
2022/10/18 06:28:29;;;;;;;22.07;15.07;;;-29.80;99.90;;;;;;5029841;28;20188;-77
2022/10/18 06:30:56;;;;;;;20.03;13.30;;;-30.10;99.90;;;;;;5025505;28;20251;-80
2022/10/18 06:33:22;;;;;;;25.40;12.88;;;-31.30;99.90;;;;;;5022224;28;20456;-75
2022/10/18 06:36:02;;;;;;;15.97;11.30;;;-31.60;99.90;;;;;;5028620;28;20237;-74
2022/10/18 06:38:29;;;;;;;23.40;14.10;;;-31.60;99.90;;;;;;5030575;28;20176;-76
2022/10/18 06:40:56;;;;;;;19.63;12.93;;;-31.70;99.90;;;;;;5051147;28;20596;-72
2022/10/18 06:43:22;;;;;;;21.57;11.27;;;-29.60;99.90;;;;;;5033155;28;20228;-70
2022/10/18 06:45:49;;;;;;;25.37;13.57;;;-31.10;99.90;;;;;;5034630;28;20180;-75
2022/10/18 06:48:16;;;;;;;13.17;11.77;;;-32.30;99.90;;;;;;5044520;28;20181;-69
2022/10/18 06:50:42;;;;;;;33.23;11.80;;;-35.20;99.90;;;;;;5023228;28;20189;-73
2022/10/18 06:53:08;;;;;;;28.40;12.13;;;-33.10;99.90;;;;;;5051234;28;21869;-70
2022/10/18 06:55:34;;;;;;;17.83;12.90;;;-33.40;99.90;;;;;;5029806;28;20205;-80
2022/10/18 06:58:00;;;;;;;13.30;11.37;;;-33.20;99.90;;;;;;5025712;28;20611;-67
2022/10/18 07:00:26;;;;;;;16.70;11.30;;;-30.10;99.90;;;;;;5023650;28;20204;-76
2022/10/18 07:02:52;;;;;;;15.20;13.20;;;-30.50;99.90;;;;;;5034948;28;20192;-77
2022/10/18 07:05:18;;;;;;;15.23;12.40;;;-29.00;99.90;;;;;;5038738;28;20195;-76
2022/10/18 07:07:44;;;;;;;14.57;10.97;;;-30.00;99.90;;;;;;5034604;28;20184;-69
2022/10/18 07:10:12;;;;;;;17.03;13.23;;;-31.50;99.90;;;;;;5044319;28;20615;-77
2022/10/18 07:12:39;;;;;;;17.10;12.67;;;-32.40;99.90;;;;;;5038120;28;20183;-78
2022/10/18 07:15:05;;;;;;;20.37;11.20;;;-31.00;99.90;;;;;;5039929;28;20211;-72
2022/10/18 07:17:31;;;;;;;16.37;11.03;;;-31.90;99.90;;;;;;5033530;28;20180;-76
2022/10/18 07:19:57;;;;;;;18.80;12.83;;;-34.70;99.90;;;;;;5031997;28;20180;-67
2022/10/18 07:22:23;;;;;;;17.00;12.10;;;-32.10;99.90;;;;;;5020891;28;20178;-71
2022/10/18 07:24:49;;;;;;;15.47;11.17;;;-22.80;99.90;;;;;;5020799;28;20183;-76
2022/10/18 07:27:15;;;;;;;17.87;13.07;;;-22.40;99.90;;;;;;5038902;28;20173;-76
2022/10/18 07:29:41;;;;;;;15.63;12.47;;;-30.30;99.90;;;;;;5043079;28;20239;-77
2022/10/18 07:32:10;;;;;;;14.83;11.27;;;-31.90;99.90;;;;;;5021298;28;20185;-77
2022/10/18 07:34:38;;;;;;;20.37;11.97;;;-35.90;99.90;;;;;;5028180;28;20176;-78
2022/10/18 07:37:07;;;;;;;47.47;12.87;;;-35.00;99.90;;;;;;5028150;28;20209;-75
2022/10/18 07:39:33;;;;;;;16.20;12.77;;;-30.80;99.90;;;;;;5033688;28;20265;-69
2022/10/18 07:41:59;;;;;;;13.73;12.17;;;-27.30;99.90;;;;;;5042689;28;20264;-75
2022/10/18 07:44:25;;;;;;;18.73;12.67;;;-29.10;99.90;;;;;;5051485;28;20195;-76
2022/10/18 07:46:51;;;;;;;27.67;13.60;;;-29.10;99.90;;;;;;5020761;28;20466;-76
2022/10/18 07:49:17;;;;;;;18.00;11.83;;;-32.80;99.90;;;;;;5027671;28;20189;-75
2022/10/18 07:51:44;;;;;;;18.60;12.67;;;-30.70;99.90;;;;;;5025084;28;20298;-70
2022/10/18 07:54:10;;;;;;;27.70;20.17;;;-35.10;99.90;;;;;;5038095;28;20216;-66
2022/10/18 07:56:37;;;;;;;41.47;27.73;;;-28.50;99.90;;;;;;5031837;28;20836;-75
2022/10/18 07:59:03;;;;;;;37.17;26.93;;;-30.80;99.90;;;;;;5028509;28;20184;-67
2022/10/18 08:01:29;;;;;;;23.57;17.53;;;-33.80;99.90;;;;;;5019905;28;20216;-74
2022/10/18 08:03:55;;;;;;;24.10;14.53;;;-35.40;99.90;;;;;;5021963;28;20541;-69
2022/10/18 08:06:22;;;;;;;25.03;15.10;;;-40.00;99.90;;;;;;5036132;28;20490;-68
2022/10/18 08:08:51;;;;;;;17.70;13.27;;;-37.40;99.90;;;;;;5022792;28;20192;-76
2022/10/18 08:11:20;;;;;;;21.70;13.80;;;-32.00;99.90;;;;;;5041862;28;20202;-68
2022/10/18 08:13:46;;;;;;;24.57;13.37;;;-35.40;99.90;;;;;;5032606;28;20785;-68
2022/10/18 08:16:19;;;;;;;26.47;13.93;;;-37.20;99.90;;;;;;5035006;28;20213;-75
2022/10/18 08:18:47;;;;;;;28.70;13.57;;;-37.70;99.90;;;;;;5023337;28;20184;-76
2022/10/18 08:21:14;;;;;;;19.60;13.63;;;-40.00;99.90;;;;;;5036889;28;20574;-66
2022/10/18 08:23:40;;;;;;;23.60;12.93;;;-40.00;99.90;;;;;;5033517;28;20643;-67
2022/10/18 08:26:09;;;;;;;19.80;12.47;;;-40.00;99.90;;;;;;5035709;28;20360;-67
2022/10/18 08:28:35;;;;;;;16.87;13.00;;;-40.00;99.90;;;;;;5039513;28;20191;-69
2022/10/18 08:31:19;;;;;;;27.50;12.00;;;-40.00;99.90;;;;;;5032722;28;20184;-68
2022/10/18 08:33:46;;;;;;;15.97;10.37;;;-40.00;99.90;;;;;;5037184;28;20203;-70
2022/10/18 08:36:14;;;;;;;16.90;9.97;;;-40.00;99.90;;;;;;5040126;28;20208;-70
2022/10/18 08:38:41;;;;;;;11.40;9.97;;;-40.00;99.90;;;;;;5029964;28;20204;-78
2022/10/18 08:41:28;;;;;;;18.97;12.10;;;-40.00;99.90;;;;;;5036024;28;20884;-69
2022/10/18 08:44:14;;;;;;;26.17;11.47;;;-40.00;99.90;;;;;;5041713;28;20181;-69
2022/10/18 08:46:48;;;;;;;20.03;10.47;;;-40.00;99.90;;;;;;5036441;28;20188;-69
2022/10/18 08:49:34;;;;;;;16.07;8.70;;;-40.00;99.90;;;;;;5034401;28;20184;-74
2022/10/18 08:52:01;;;;;;;20.00;8.97;;;-40.00;99.90;;;;;;5034655;28;20187;-74
2022/10/18 08:54:43;;;;;;;12.80;7.83;;;-40.00;99.90;;;;;;5032658;28;20180;-78
2022/10/18 08:57:14;;;;;;;21.53;8.90;;;-40.00;99.90;;;;;;5033873;28;20193;-79
2022/10/18 08:59:41;;;;;;;11.30;7.10;;;-40.00;99.90;;;;;;5036114;28;20187;-70
2022/10/18 09:02:23;;;;;;;11.23;7.00;;;-40.00;99.90;;;;;;5033368;28;20216;-68
2022/10/18 09:05:30;;;;;;;13.40;6.77;;;-40.00;99.90;;;;;;5030363;28;20263;-68
2022/10/18 09:08:22;;;;;;;21.57;7.00;;;-40.00;99.90;;;;;;5033503;28;20256;-68
2022/10/18 09:11:06;;;;;;;13.10;6.23;;;-40.00;99.90;;;;;;5034247;28;20181;-71
2022/10/18 09:13:51;;;;;;;18.13;5.10;;;-40.00;99.90;;;;;;5049700;28;20164;-68
2022/10/18 09:16:47;;;;;;;23.40;7.27;;;-40.00;99.90;;;;;;5025118;28;20305;-68
2022/10/18 09:19:58;;;;;;;11.73;5.73;;;-40.00;99.90;;;;;;5021634;28;20247;-68
2022/10/18 09:22:55;;;;;;;17.80;8.03;;;-40.00;99.90;;;;;;5031144;28;20526;-68
2022/10/18 09:25:24;;;;;;;19.67;7.03;;;-40.00;99.90;;;;;;5032260;28;20482;-72
2022/10/18 09:27:52;;;;;;;17.50;6.80;;;-40.00;99.90;;;;;;5029959;28;20177;-69
2022/10/18 09:30:42;;;;;;;18.53;6.10;;;-40.00;99.90;;;;;;5031126;28;20619;-70
2022/10/18 09:33:17;;;;;;;14.73;6.57;;;-40.00;99.90;;;;;;5029860;28;20195;-68
2022/10/18 09:35:51;;;;;;;11.73;5.63;;;-40.00;99.90;;;;;;5034385;28;20261;-68
2022/10/18 09:38:20;;;;;;;19.23;5.83;;;-40.00;99.90;;;;;;5027556;28;20181;-69
2022/10/18 09:40:59;;;;;;;13.27;5.27;;;-40.00;99.90;;;;;;5022845;28;20476;-70
2022/10/18 09:43:38;;;;;;;15.10;5.50;;;-40.00;99.90;;;;;;5025167;28;20177;-69
2022/10/18 09:46:05;;;;;;;10.13;4.10;;;-40.00;99.90;;;;;;5023854;28;20184;-73
2022/10/18 09:48:58;;;;;;;29.03;7.07;;;-40.00;99.90;;;;;;5027489;28;20580;-70
2022/10/18 09:51:28;;;;;;;23.30;6.00;;;-40.00;99.90;;;;;;5029050;28;20188;-71
2022/10/18 09:54:03;;;;;;;24.37;6.23;;;-40.00;99.90;;;;;;5035819;28;20180;-72
2022/10/18 09:56:46;;;;;;;18.30;7.97;;;-40.00;99.90;;;;;;5022305;28;20215;-73
2022/10/18 09:59:34;;;;;;;14.30;6.23;;;-40.00;99.90;;;;;;5036755;28;20177;-70
2022/10/18 10:02:00;;;;;;;19.17;5.63;;;-40.00;99.90;;;;;;5035236;28;20195;-76
2022/10/18 10:04:26;;;;;;;14.17;5.20;;;-40.00;99.90;;;;;;5030364;28;20175;-73
2022/10/18 10:06:55;;;;;;;12.83;4.87;;;-40.00;99.90;;;;;;5029901;28;20186;-74
2022/10/18 10:09:30;;;;;;;9.93;5.20;;;-40.00;99.90;;;;;;5029578;28;20191;-72
2022/10/18 10:11:56;;;;;;;14.03;4.50;;;-40.00;99.90;;;;;;5035555;28;20214;-75
2022/10/18 10:14:26;;;;;;;16.70;4.87;;;-40.00;99.90;;;;;;5036105;28;20176;-71
2022/10/18 10:16:58;;;;;;;14.47;6.57;;;-40.00;99.90;;;;;;5024507;28;20362;-72
2022/10/18 10:19:53;;;;;;;10.00;3.80;;;-40.00;99.90;;;;;;5031543;28;20215;-71
2022/10/18 10:22:27;;;;;;;14.83;5.90;;;-40.00;99.90;;;;;;5035121;28;20185;-72
2022/10/18 10:24:54;;;;;;;12.43;4.20;;;-40.00;99.90;;;;;;5028125;28;20181;-71
2022/10/18 10:27:30;;;;;;;14.53;4.73;;;-40.00;99.90;;;;;;5025438;28;20185;-69
2022/10/18 10:29:58;;;;;;;11.93;6.43;;;-40.00;99.90;;;;;;5035230;28;20211;-71
2022/10/18 10:32:27;;;;;;;12.23;4.37;;;-40.00;99.90;;;;;;5026945;28;20192;-71
2022/10/18 10:34:53;;;;;;;13.57;4.87;;;-40.00;99.90;;;;;;5035030;28;20184;-72
2022/10/18 10:37:22;;;;;;;14.90;3.40;;;-40.00;99.90;;;;;;5030437;28;20503;-69
2022/10/18 10:40:20;;;;;;;14.30;4.67;;;-40.00;99.90;;;;;;5029087;28;20180;-72
2022/10/18 10:42:52;;;;;;;11.93;5.07;;;-40.00;99.90;;;;;;5027701;28;20196;-70
2022/10/18 10:45:19;;;;;;;11.47;3.90;;;-40.00;99.90;;;;;;5022800;28;20239;-70
2022/10/18 10:47:46;;;;;;;10.40;3.60;;;-40.00;99.90;;;;;;5030198;28;20203;-74
2022/10/18 10:50:13;;;;;;;12.80;3.83;;;-40.00;99.90;;;;;;5035133;28;20184;-72
2022/10/18 10:52:42;;;;;;;16.77;4.70;;;-40.00;99.90;;;;;;5035297;28;20188;-71
2022/10/18 10:55:18;;;;;;;12.97;3.80;;;-40.00;99.90;;;;;;5026950;28;20223;-71
2022/10/18 10:57:46;;;;;;;14.27;3.40;;;-40.00;99.90;;;;;;5016751;28;20718;-71
2022/10/18 11:00:39;;;;;;;13.23;4.00;;;-40.00;99.90;;;;;;5034585;28;20354;-71
2022/10/18 11:03:17;;;;;;;10.97;2.33;;;-40.00;99.90;;;;;;5035457;28;20541;-70
2022/10/18 11:05:44;;;;;;;11.20;6.60;;;-40.00;99.90;;;;;;5035107;28;20184;-79
2022/10/18 11:08:15;;;;;;;9.30;3.97;;;-40.00;99.90;;;;;;5022709;28;20339;-72
2022/10/18 11:11:08;;;;;;;14.47;3.43;;;-40.00;99.90;;;;;;5047507;28;20220;-73
2022/10/18 11:13:49;;;;;;;10.53;3.00;;;-40.00;99.90;;;;;;5025094;28;20181;-71
2022/10/18 11:16:32;;;;;;;10.50;3.27;;;-40.00;99.90;;;;;;5030353;28;20212;-70
2022/10/18 11:19:08;;;;;;;8.90;4.40;;;-40.00;99.90;;;;;;5031608;28;20168;-73
2022/10/18 11:21:34;;;;;;;8.57;2.73;;;-40.00;99.90;;;;;;5032964;28;20187;-71
2022/10/18 11:24:01;;;;;;;12.83;3.27;;;-40.00;99.90;;;;;;5023985;28;20180;-73
2022/10/18 11:26:36;;;;;;;5.63;2.80;;;-40.00;99.90;;;;;;5020066;28;20199;-73
2022/10/18 11:29:34;;;;;;;12.90;3.10;;;-40.00;99.90;;;;;;5037153;28;20187;-70
2022/10/18 11:32:15;;;;;;;8.10;2.10;;;-40.00;99.90;;;;;;5030197;28;20600;-75
2022/10/18 11:35:16;;;;;;;11.97;2.90;;;-40.00;99.90;;;;;;5021971;28;20195;-75
2022/10/18 11:37:45;;;;;;;7.03;1.53;;;-40.00;97.60;;;;;;5028528;28;20224;-73
2022/10/18 11:40:36;;;;;;;6.63;2.33;;;-40.00;99.00;;;;;;5029072;28;20188;-85
2022/10/18 11:43:23;;;;;;;7.10;2.23;;;-40.00;92.80;;;;;;5037019;28;20581;-73
2022/10/18 11:46:14;;;;;;;6.90;2.87;;;-40.00;86.50;;;;;;5024601;28;20193;-79
2022/10/18 11:49:10;;;;;;;4.93;2.40;;;-40.00;86.30;;;;;;5027682;28;20189;-69
2022/10/18 11:51:57;;;;;;;6.80;2.37;;;-40.00;82.80;;;;;;5034333;28;20196;-73
2022/10/18 11:54:47;;;;;;;4.57;1.87;;;-40.00;79.90;;;;;;5030392;28;20182;-70
2022/10/18 11:57:31;;;;;;;4.70;2.13;;;-40.00;79.30;;;;;;5020855;28;20252;-76
2022/10/18 12:00:19;;;;;;;3.97;2.20;;;-40.00;77.50;;;;;;5032224;28;20263;-70
2022/10/18 12:03:07;;;;;;;11.83;2.00;;;-40.00;81.20;;;;;;5046648;28;20187;-79
2022/10/18 12:05:35;;;;;;;5.43;2.03;;;-40.00;81.90;;;;;;5027816;28;20189;-70
2022/10/18 12:08:06;;;;;;;7.07;2.33;;;-40.00;73.50;;;;;;5027626;28;20181;-74
2022/10/18 12:10:35;;;;;;;3.97;1.80;;;-40.00;83.30;;;;;;5042893;28;20201;-70
2022/10/18 12:13:05;;;;;;;5.90;1.80;;;-40.00;74.20;;;;;;5032743;28;20208;-77
2022/10/18 12:15:35;;;;;;;2.90;1.50;;;-40.00;77.50;;;;;;5026997;28;20212;-71
2022/10/18 12:18:07;;;;;;;13.23;2.70;;;-40.00;71.60;;;;;;5029256;28;20189;-70
2022/10/18 12:20:38;;;;;;;6.63;1.73;;;-40.00;73.20;;;;;;5035349;28;20998;-70
2022/10/18 12:23:36;;;;;;;2.73;1.60;;;-40.00;69.50;;;;;;5031631;28;20723;-70
2022/10/18 12:26:05;;;;;;;5.30;2.23;;;-40.00;71.80;;;;;;5021116;28;20197;-79
2022/10/18 12:29:09;;;;;;;4.37;1.70;;;-40.00;66.80;;;;;;5019457;28;20196;-86
2022/10/18 12:31:38;;;;;;;5.97;2.23;;;-40.00;70.50;;;;;;5031905;28;20271;-75
2022/10/18 12:34:26;;;;;;;13.97;2.63;;;-40.00;70.80;;;;;;5024949;28;20312;-70
2022/10/18 12:37:19;;;;;;;5.33;2.00;;;-40.00;64.40;;;;;;5036990;28;20208;-76
2022/10/18 12:39:48;;;;;;;4.93;1.83;;;-40.00;65.70;;;;;;5036317;28;20635;-74
2022/10/18 12:42:24;;;;;;;2.60;1.40;;;-40.00;65.60;;;;;;5019443;28;20181;-72
2022/10/18 12:45:00;;;;;;;3.33;1.37;;;-40.00;63.60;;;;;;5030790;28;20188;-74
2022/10/18 12:47:28;;;;;;;6.43;1.67;;;-40.00;60.00;;;;;;5033898;28;20195;-73
2022/10/18 12:50:01;;;;;;;4.83;1.90;;;-40.00;64.70;;;;;;5036659;28;20192;-78